Time;durP1;ratioP1;P1;durP2;ratioP2;P2;SDS_P1;SDS_P2;PMS_P1;PMS_P2;Temp;Humidity;BMP_temperature;BMP_pressure;BME280_temperature;BME280_humidity;BME280_pressure;Samples;Min_cycle;Max_cycle;Signal;HPM_P1;HPM_P2
2023/03/16 00:00:43;;;;;;;6.43;3.90;;;;;;;5.80;100.00;101762.44;5032014;28;20025;-60
2023/03/16 00:03:09;;;;;;;6.15;3.70;;;;;;;5.85;100.00;101758.09;5028173;28;20456;-63
2023/03/16 00:05:35;;;;;;;7.05;4.00;;;;;;;5.85;100.00;101754.59;5026320;28;20025;-61
2023/03/16 00:08:00;;;;;;;5.55;3.67;;;;;;;5.83;100.00;101749.38;5010021;28;20028;-61
2023/03/16 00:10:26;;;;;;;7.72;4.55;;;;;;;5.82;100.00;101748.50;5026926;28;20044;-61
2023/03/16 00:12:52;;;;;;;4.82;3.80;;;;;;;5.90;100.00;101748.50;5025861;28;20076;-63
2023/03/16 00:15:18;;;;;;;5.75;3.92;;;;;;;5.96;100.00;101750.25;5009071;28;20025;-61
2023/03/16 00:17:47;;;;;;;8.23;3.92;;;;;;;6.00;100.00;101738.94;5027025;28;20022;-61
2023/03/16 00:20:12;;;;;;;4.57;3.42;;;;;;;6.02;100.00;101741.53;5026588;28;20458;-60
2023/03/16 00:22:38;;;;;;;5.20;3.85;;;;;;;5.98;100.00;101748.50;5025955;28;20038;-60
2023/03/16 00:25:03;;;;;;;8.40;3.72;;;;;;;6.02;100.00;101746.78;5027160;28;20017;-61
2023/03/16 00:27:29;;;;;;;11.88;4.30;;;;;;;5.94;100.00;101746.78;5025529;28;20048;-61
2023/03/16 00:29:54;;;;;;;9.25;3.70;;;;;;;6.06;100.00;101745.94;5038311;28;20021;-62
2023/03/16 00:32:25;;;;;;;7.15;4.10;;;;;;;6.07;100.00;101739.81;5046145;28;20044;-61
2023/03/16 00:34:51;;;;;;;6.55;4.07;;;;;;;5.96;100.00;101745.00;5046024;28;20100;-61
2023/03/16 00:37:17;;;;;;;7.53;4.25;;;;;;;6.04;100.00;101740.69;5046317;28;20479;-61
2023/03/16 00:39:44;;;;;;;10.30;4.95;;;;;;;6.09;100.00;101737.19;5046531;28;20032;-62
2023/03/16 00:42:11;;;;;;;7.55;4.25;;;;;;;6.09;100.00;101735.47;5058553;28;20171;-61
2023/03/16 00:44:36;;;;;;;7.00;4.43;;;;;;;6.13;100.00;101718.00;5063772;28;20024;-61
2023/03/16 00:47:03;;;;;;;7.80;4.20;;;;;;;6.04;100.00;101722.38;5028847;28;20025;-61
2023/03/16 00:49:28;;;;;;;7.00;4.85;;;;;;;6.07;100.00;101711.91;5044953;28;20786;-61
2023/03/16 00:51:53;;;;;;;6.78;4.80;;;;;;;6.06;100.00;101714.53;5023849;28;20029;-62
2023/03/16 00:54:21;;;;;;;11.85;4.78;;;;;;;6.12;100.00;101716.25;5034453;28;20536;-61
2023/03/16 00:56:46;;;;;;;8.18;4.80;;;;;;;6.01;100.00;101711.88;5045714;28;20017;-61
2023/03/16 00:59:11;;;;;;;6.15;4.60;;;;;;;6.16;100.00;101702.28;5028012;28;20083;-61
2023/03/16 01:01:37;;;;;;;8.20;4.38;;;;;;;6.16;100.00;101703.19;5028223;28;20021;-62
2023/03/16 01:04:03;;;;;;;8.40;5.03;;;;;;;6.16;100.00;101700.56;5045217;28;20029;-62
2023/03/16 01:06:28;;;;;;;9.27;4.35;;;;;;;6.05;100.00;101694.47;5044166;28;20059;-61
2023/03/16 01:08:53;;;;;;;6.97;4.72;;;;;;;6.17;100.00;101688.34;5045913;28;20087;-61
2023/03/16 01:11:21;;;;;;;8.27;4.88;;;;;;;6.18;100.00;101688.31;5045065;28;20033;-61
2023/03/16 01:13:48;;;;;;;9.27;4.75;;;;;;;6.26;100.00;101684.84;5046190;28;20389;-61
2023/03/16 01:16:22;;;;;;;8.32;4.50;;;;;;;6.24;100.00;101684.84;5045370;28;20404;-61
2023/03/16 01:18:47;;;;;;;10.45;5.15;;;;;;;6.16;100.00;101683.97;5044851;28;20052;-61
2023/03/16 01:21:13;;;;;;;6.75;4.65;;;;;;;6.12;100.00;101684.84;5046218;28;20057;-62
2023/03/16 01:23:39;;;;;;;8.73;4.85;;;;;;;6.27;100.00;101677.00;5045956;28;20096;-63
2023/03/16 01:26:06;;;;;;;6.05;4.60;;;;;;;6.23;100.00;101675.22;5024047;28;20032;-61
2023/03/16 01:28:33;;;;;;;7.18;4.90;;;;;;;6.23;100.00;101683.09;5025709;28;20697;-60
2023/03/16 01:31:04;;;;;;;6.18;5.05;;;;;;;6.19;100.00;101670.88;5025765;28;20486;-61
2023/03/16 01:33:29;;;;;;;10.65;5.20;;;;;;;6.21;100.00;101671.75;5025973;28;20030;-62
2023/03/16 01:35:55;;;;;;;8.38;5.00;;;;;;;6.24;100.00;101663.03;5050209;28;20489;-61
2023/03/16 01:38:21;;;;;;;11.00;5.28;;;;;;;6.24;100.00;101658.69;5031219;28;20041;-61
2023/03/16 01:40:51;;;;;;;10.70;4.82;;;;;;;6.28;100.00;101656.91;5049765;28;20075;-61
2023/03/16 01:43:18;;;;;;;6.68;4.97;;;;;;;6.18;100.00;101645.59;5033367;28;20029;-62
2023/03/16 01:45:52;;;;;;;9.45;5.10;;;;;;;6.25;100.00;101652.56;5011795;28;20048;-61
2023/03/16 01:48:20;;;;;;;8.90;4.80;;;;;;;6.19;100.00;101642.97;5029027;28;20034;-62
2023/03/16 01:50:46;;;;;;;9.90;5.55;;;;;;;6.24;100.00;101645.59;5041555;28;20029;-61
2023/03/16 01:53:11;;;;;;;10.27;4.82;;;;;;;6.19;100.00;101637.75;5031453;28;20545;-60
2023/03/16 01:55:37;;;;;;;8.65;5.43;;;;;;;6.18;100.00;101635.13;5032458;28;20028;-61
2023/03/16 01:58:02;;;;;;;8.73;5.50;;;;;;;6.15;100.00;101635.13;5049262;28;20457;-62
2023/03/16 02:00:31;;;;;;;9.13;5.22;;;;;;;6.18;100.00;101637.75;5030542;28;20432;-61
2023/03/16 02:03:09;;;;;;;8.77;4.93;;;;;;;6.23;100.00;101627.28;5048691;28;20056;-61
2023/03/16 02:05:41;;;;;;;6.50;5.00;;;;;;;6.19;100.00;101624.66;5031715;28;20059;-61
2023/03/16 02:08:07;;;;;;;6.88;4.97;;;;;;;6.22;100.00;101622.88;5032390;28;20665;-61
2023/03/16 02:10:33;;;;;;;8.68;5.00;;;;;;;6.25;100.00;101625.50;5027704;28;20018;-61
2023/03/16 02:12:59;;;;;;;5.97;4.72;;;;;;;6.30;100.00;101624.59;5028494;28;20076;-61
2023/03/16 02:15:26;;;;;;;10.52;4.82;;;;;;;6.28;100.00;101615.91;5045352;28;20470;-61
2023/03/16 02:17:51;;;;;;;8.13;4.75;;;;;;;6.29;100.00;101615.03;5047920;28;20029;-60
2023/03/16 02:20:36;;;;;;;9.98;5.40;;;;;;;6.28;100.00;101612.41;5029937;28;20083;-62
2023/03/16 02:23:03;;;;;;;10.90;5.57;;;;;;;6.29;100.00;101606.31;5030522;28;20477;-61
2023/03/16 02:25:43;;;;;;;9.38;5.00;;;;;;;6.21;100.00;101603.72;5048044;28;20035;-60
2023/03/16 02:28:32;;;;;;;8.82;5.22;;;;;;;6.28;100.00;101605.44;5048516;28;20468;-62
2023/03/16 02:30:58;;;;;;;11.25;5.53;;;;;;;6.15;100.00;101598.50;5017647;28;20030;-61
2023/03/16 02:33:24;;;;;;;7.00;5.20;;;;;;;6.20;100.00;101596.72;5010008;28;20025;-61
2023/03/16 02:35:49;;;;;;;9.77;5.20;;;;;;;6.16;100.00;101592.38;5011118;28;20421;-61
2023/03/16 02:38:15;;;;;;;9.07;5.70;;;;;;;6.21;100.00;101592.38;5028706;28;20037;-62
2023/03/16 02:40:42;;;;;;;10.88;5.55;;;;;;;6.24;100.00;101593.25;5035982;28;20072;-62
2023/03/16 02:43:18;;;;;;;13.18;5.40;;;;;;;6.27;100.00;101593.22;5048329;28;20476;-62
2023/03/16 02:45:47;;;;;;;10.75;4.68;;;;;;;6.27;100.00;101593.22;5025963;28;20022;-60
2023/03/16 02:48:31;;;;;;;10.98;5.28;;;;;;;6.32;100.00;101590.56;5010151;28;20033;-62
2023/03/16 02:50:56;;;;;;;12.68;5.05;;;;;;;6.30;100.00;101593.19;5028038;28;20746;-62
2023/03/16 02:53:21;;;;;;;10.98;4.93;;;;;;;6.32;100.00;101591.44;5067530;28;20028;-63
2023/03/16 02:55:47;;;;;;;9.55;5.05;;;;;;;6.39;100.00;101591.44;5059122;28;20025;-61
2023/03/16 02:58:14;;;;;;;8.20;4.38;;;;;;;6.45;100.00;101589.66;5048048;28;20100;-61
2023/03/16 03:00:39;;;;;;;6.30;4.60;;;;;;;6.48;100.00;101582.66;5042047;28;20025;-62
2023/03/16 03:03:07;;;;;;;9.75;5.13;;;;;;;6.52;100.00;101585.25;5047174;28;20510;-59
2023/03/16 03:05:32;;;;;;;11.23;5.32;;;;;;;6.51;100.00;101586.16;5047240;28;20032;-60
2023/03/16 03:07:57;;;;;;;9.27;4.03;;;;;;;6.46;100.00;101590.53;5047227;28;20079;-60
2023/03/16 03:10:23;;;;;;;9.20;4.97;;;;;;;6.52;100.00;101581.75;5046681;28;20523;-62
2023/03/16 03:12:48;;;;;;;9.10;5.15;;;;;;;6.51;100.00;101587.88;5047011;28;20029;-62
2023/03/16 03:15:15;;;;;;;8.48;4.82;;;;;;;6.42;100.00;101579.19;5030922;28;20033;-62
2023/03/16 03:17:41;;;;;;;10.77;4.95;;;;;;;6.47;100.00;101576.53;5024062;28;20104;-62
2023/03/16 03:20:15;;;;;;;8.70;4.85;;;;;;;6.51;100.00;101570.44;5047205;28;20079;-63
2023/03/16 03:22:41;;;;;;;6.97;5.03;;;;;;;6.42;100.00;101571.31;5033125;28;20064;-61
2023/03/16 03:25:07;;;;;;;12.95;5.78;;;;;;;6.35;100.00;101569.63;5027590;28;20079;-60
2023/03/16 03:27:33;;;;;;;9.68;5.68;;;;;;;6.38;100.00;101568.75;5038264;28;20029;-61
2023/03/16 03:29:58;;;;;;;8.30;4.97;;;;;;;6.33;100.00;101560.91;5047318;28;20036;-61
2023/03/16 03:32:24;;;;;;;11.38;5.28;;;;;;;6.39;100.00;101560.91;5046141;28;20112;-60
2023/03/16 03:34:49;;;;;;;10.23;4.55;;;;;;;6.38;100.00;101553.91;5046783;28;20100;-61
2023/03/16 03:37:15;;;;;;;11.50;4.90;;;;;;;6.34;100.00;101556.53;5046136;28;20027;-61
2023/03/16 03:39:40;;;;;;;10.80;5.47;;;;;;;6.31;100.00;101558.31;5047571;28;20021;-61
2023/03/16 03:42:06;;;;;;;15.20;5.72;;;;;;;6.34;100.00;101560.03;5046401;28;20122;-61
2023/03/16 03:44:33;;;;;;;10.43;4.72;;;;;;;6.32;100.00;101549.56;5046577;28;20021;-61
2023/03/16 03:46:59;;;;;;;9.27;5.15;;;;;;;6.36;100.00;101544.31;5046462;28;20115;-60
2023/03/16 03:49:24;;;;;;;10.63;4.68;;;;;;;6.44;100.00;101539.91;5028518;28;20031;-61
2023/03/16 03:51:50;;;;;;;7.30;4.45;;;;;;;6.48;100.00;101543.41;5046303;28;20052;-59
2023/03/16 03:54:15;;;;;;;7.68;4.35;;;;;;;6.49;100.00;101532.91;5026837;28;20069;-61
2023/03/16 03:56:41;;;;;;;10.57;4.93;;;;;;;6.43;100.00;101532.94;5025723;28;20251;-61
2023/03/16 03:59:06;;;;;;;10.15;5.22;;;;;;;6.37;100.00;101531.22;5043835;28;20025;-62
2023/03/16 04:01:31;;;;;;;7.90;4.43;;;;;;;6.40;100.00;101520.75;5046246;28;20017;-62
2023/03/16 04:03:57;;;;;;;11.25;5.28;;;;;;;6.29;100.00;101523.41;5045248;28;20025;-61
2023/03/16 04:06:22;;;;;;;10.88;4.78;;;;;;;6.31;100.00;101524.28;5046695;28;20031;-62
2023/03/16 04:08:48;;;;;;;7.50;4.18;;;;;;;6.34;100.00;101525.13;5034974;28;20105;-60
2023/03/16 04:11:13;;;;;;;6.95;4.95;;;;;;;6.32;100.00;101523.41;5026765;28;20060;-61
2023/03/16 04:13:38;;;;;;;6.07;4.72;;;;;;;6.35;100.00;101525.13;5035580;28;20155;-60
2023/03/16 04:16:04;;;;;;;6.68;4.22;;;;;;;6.50;100.00;101533.78;5046740;28;20037;-63
2023/03/16 04:18:37;;;;;;;7.03;5.13;;;;;;;6.28;100.00;101521.69;5033533;28;20037;-61
2023/03/16 04:21:06;;;;;;;8.55;3.90;;;;;;;6.36;100.00;101523.38;5026539;28;20033;-61
2023/03/16 04:23:32;;;;;;;6.40;3.92;;;;;;;6.32;100.00;101518.16;5036693;28;20021;-63
2023/03/16 04:25:58;;;;;;;7.05;4.28;;;;;;;6.27;100.00;101511.22;5046503;28;20109;-61
2023/03/16 04:28:25;;;;;;;7.65;4.25;;;;;;;6.31;100.00;101505.09;5051823;28;20025;-62
2023/03/16 04:30:53;;;;;;;9.82;4.13;;;;;;;6.40;100.00;101509.38;5046047;28;20115;-61
2023/03/16 04:33:19;;;;;;;7.82;4.00;;;;;;;6.27;100.00;101508.59;5038736;28;20079;-61
2023/03/16 04:35:44;;;;;;;11.30;4.22;;;;;;;6.36;100.00;101508.56;5026814;28;20529;-61
2023/03/16 04:38:11;;;;;;;8.93;3.97;;;;;;;6.41;100.00;101500.69;5029533;28;20056;-61
2023/03/16 04:40:37;;;;;;;9.05;4.00;;;;;;;6.40;100.00;101496.31;5047108;28;20075;-60
2023/03/16 04:43:03;;;;;;;5.38;4.10;;;;;;;6.32;100.00;101502.47;5045902;28;20032;-62
2023/03/16 04:45:28;;;;;;;9.57;4.13;;;;;;;6.29;100.00;101501.63;5026897;28;20029;-61
2023/03/16 04:47:53;;;;;;;8.52;4.00;;;;;;;6.31;100.00;101499.84;5026018;28;20366;-61
2023/03/16 04:50:19;;;;;;;8.82;4.05;;;;;;;6.35;100.00;101496.31;5043676;28;20033;-62
2023/03/16 04:52:44;;;;;;;10.43;4.07;;;;;;;6.32;100.00;101497.22;5046625;28;20021;-62
2023/03/16 04:55:09;;;;;;;7.60;3.53;;;;;;;6.30;100.00;101493.72;5031218;28;20109;-62
2023/03/16 04:57:35;;;;;;;5.85;3.72;;;;;;;6.25;100.00;101500.75;5027375;28;20036;-61
2023/03/16 05:00:00;;;;;;;8.30;3.47;;;;;;;6.23;100.00;101496.41;5035286;28;20061;-62
2023/03/16 05:02:26;;;;;;;9.10;4.00;;;;;;;6.25;100.00;101503.38;5045353;28;20033;-62
2023/03/16 05:04:51;;;;;;;5.70;3.90;;;;;;;6.24;100.00;101496.41;5044396;28;20060;-61
2023/03/16 05:07:17;;;;;;;7.65;4.03;;;;;;;6.17;100.00;101497.31;5046518;28;20223;-63
2023/03/16 05:09:42;;;;;;;6.65;3.92;;;;;;;6.29;100.00;101483.31;5048846;28;20381;-62
2023/03/16 05:12:08;;;;;;;8.00;3.63;;;;;;;6.23;100.00;101486.78;5050971;28;20040;-61
2023/03/16 05:14:34;;;;;;;6.75;3.55;;;;;;;6.18;100.00;101480.72;5049940;28;20056;-61
2023/03/16 05:17:02;;;;;;;7.50;4.20;;;;;;;6.20;100.00;101492.03;5048948;28;20032;-61
2023/03/16 05:19:28;;;;;;;9.18;3.88;;;;;;;6.17;100.00;101479.00;5039950;28;20373;-61
2023/03/16 05:21:54;;;;;;;6.05;3.55;;;;;;;6.15;100.00;101472.91;5035301;28;20028;-61
2023/03/16 05:24:22;;;;;;;11.23;3.90;;;;;;;6.15;100.00;101467.66;5050344;28;20123;-61
2023/03/16 05:26:47;;;;;;;7.85;4.03;;;;;;;6.18;100.00;101472.88;5050003;28;20013;-60
2023/03/16 05:29:12;;;;;;;5.35;3.25;;;;;;;6.21;100.00;101472.88;5032158;28;20025;-61
2023/03/16 05:31:38;;;;;;;9.25;3.58;;;;;;;6.06;100.00;101463.34;5050456;28;20466;-63
2023/03/16 05:34:03;;;;;;;7.35;3.80;;;;;;;6.05;100.00;101470.31;5049361;28;20040;-61
2023/03/16 05:36:29;;;;;;;7.30;3.53;;;;;;;6.06;100.00;101466.81;5049644;28;20474;-60
2023/03/16 05:38:54;;;;;;;7.32;3.75;;;;;;;6.01;100.00;101455.47;5036990;28;20057;-62
2023/03/16 05:41:20;;;;;;;8.98;3.53;;;;;;;5.98;100.00;101459.84;5049503;28;20076;-61
2023/03/16 05:43:46;;;;;;;8.48;3.83;;;;;;;6.02;100.00;101462.44;5046787;28;20074;-60
2023/03/16 05:46:12;;;;;;;7.85;3.70;;;;;;;6.04;100.00;101455.50;5030200;28;20025;-62
2023/03/16 05:48:37;;;;;;;6.90;3.70;;;;;;;5.96;100.00;101453.78;5048973;28;20493;-60
2023/03/16 05:51:04;;;;;;;6.68;3.47;;;;;;;6.05;100.00;101454.63;5049741;28;20056;-61
2023/03/16 05:53:31;;;;;;;5.30;3.50;;;;;;;6.03;100.00;101458.97;5045091;28;20028;-62
2023/03/16 05:55:57;;;;;;;6.43;3.45;;;;;;;6.11;100.00;101450.25;5031112;28;20041;-61
2023/03/16 05:58:22;;;;;;;6.60;3.50;;;;;;;5.99;100.00;101452.00;5047792;28;20052;-62
2023/03/16 06:00:49;;;;;;;8.90;3.30;;;;;;;6.05;100.00;101451.16;5047253;28;20465;-64
2023/03/16 06:03:14;;;;;;;7.43;3.63;;;;;;;6.03;100.00;101448.50;5047456;28;20032;-61
2023/03/16 06:05:40;;;;;;;4.68;2.85;;;;;;;6.13;100.00;101440.63;5026155;28;20032;-61
2023/03/16 06:08:06;;;;;;;10.80;3.20;;;;;;;5.98;100.00;101434.56;5045507;28;20431;-61
2023/03/16 06:10:32;;;;;;;4.05;2.92;;;;;;;5.99;100.00;101438.91;5048263;28;20025;-61
2023/03/16 06:12:57;;;;;;;9.10;3.47;;;;;;;6.01;100.00;101450.25;5047589;28;20362;-62
2023/03/16 06:15:25;;;;;;;8.00;3.35;;;;;;;6.00;100.00;101445.91;5047116;28;20651;-62
2023/03/16 06:17:51;;;;;;;5.47;3.40;;;;;;;6.11;100.00;101445.84;5045179;28;20029;-62
2023/03/16 06:20:16;;;;;;;7.38;3.22;;;;;;;6.10;100.00;101444.13;5045965;28;20021;-62
2023/03/16 06:22:42;;;;;;;8.25;4.45;;;;;;;6.13;100.00;101436.25;5045879;28;20021;-60
2023/03/16 06:25:09;;;;;;;7.43;3.30;;;;;;;6.10;100.00;101438.91;5047477;28;20028;-61
2023/03/16 06:27:35;;;;;;;5.03;3.22;;;;;;;6.20;100.00;101434.47;5046567;28;20029;-61
2023/03/16 06:30:00;;;;;;;8.13;3.40;;;;;;;6.19;100.00;101435.34;5046854;28;20031;-63
2023/03/16 06:32:25;;;;;;;3.85;3.22;;;;;;;6.17;100.00;101435.38;5043741;28;20036;-61
2023/03/16 06:34:51;;;;;;;4.35;3.17;;;;;;;6.23;100.00;101437.06;5047611;28;20469;-62
2023/03/16 06:37:17;;;;;;;8.68;3.90;;;;;;;6.13;100.00;101427.53;5046724;28;20470;-60
2023/03/16 06:39:43;;;;;;;8.88;3.30;;;;;;;6.16;100.00;101424.91;5047565;28;20017;-61
2023/03/16 06:42:08;;;;;;;5.90;3.20;;;;;;;6.28;100.00;101423.97;5046476;28;20017;-62
2023/03/16 06:44:34;;;;;;;3.65;3.00;;;;;;;6.41;100.00;101422.16;5012675;28;20026;-63
2023/03/16 06:46:59;;;;;;;6.38;3.10;;;;;;;6.27;100.00;101407.41;5026057;28;20052;-61
2023/03/16 06:49:25;;;;;;;9.63;3.13;;;;;;;6.39;100.00;101405.56;5040126;28;20040;-62
2023/03/16 06:51:50;;;;;;;5.20;3.03;;;;;;;6.39;100.00;101413.41;5046150;28;20013;-61
2023/03/16 06:54:15;;;;;;;5.18;3.20;;;;;;;6.36;100.00;101414.31;5040568;28;20052;-60
2023/03/16 06:56:41;;;;;;;9.70;3.20;;;;;;;6.29;100.00;101413.47;5026167;28;20389;-60
2023/03/16 06:59:06;;;;;;;8.65;3.33;;;;;;;6.41;100.00;101407.28;5026583;28;20072;-61
2023/03/16 07:01:32;;;;;;;9.63;3.22;;;;;;;6.34;100.00;101408.22;5029269;28;20099;-61
2023/03/16 07:03:57;;;;;;;10.38;2.78;;;;;;;6.37;100.00;101402.97;5045559;28;20037;-61
2023/03/16 07:06:22;;;;;;;9.05;2.92;;;;;;;6.38;100.00;101407.31;5045396;28;20104;-61
2023/03/16 07:08:48;;;;;;;7.53;2.78;;;;;;;6.39;100.00;101400.34;5047072;28;20111;-61
2023/03/16 07:11:13;;;;;;;7.13;3.10;;;;;;;6.48;100.00;101395.03;5040715;28;20029;-63
2023/03/16 07:13:39;;;;;;;11.02;3.58;;;;;;;6.37;100.00;101392.50;5065785;28;20044;-62
2023/03/16 07:16:05;;;;;;;4.88;3.28;;;;;;;6.42;100.00;101392.47;5049393;28;20021;-61
2023/03/16 07:18:31;;;;;;;5.60;2.72;;;;;;;6.48;100.00;101400.28;5066326;28;20025;-62
2023/03/16 07:20:56;;;;;;;5.13;3.00;;;;;;;6.50;100.00;101398.50;5054836;28;20068;-61
2023/03/16 07:23:23;;;;;;;6.95;2.72;;;;;;;6.64;100.00;101393.16;5046034;28;20044;-61
2023/03/16 07:25:48;;;;;;;7.60;2.70;;;;;;;6.60;100.00;101388.84;5039395;28;20028;-62
2023/03/16 07:28:13;;;;;;;7.75;2.65;;;;;;;6.77;100.00;101391.28;5026293;28;20048;-63
2023/03/16 07:30:39;;;;;;;7.30;3.08;;;;;;;6.69;100.00;101396.59;5033480;28;20038;-64
2023/03/16 07:33:04;;;;;;;10.27;2.90;;;;;;;6.80;100.00;101393.88;5045093;28;20120;-62
2023/03/16 07:35:30;;;;;;;4.00;2.67;;;;;;;7.01;100.00;101398.94;5061675;28;20056;-62
2023/03/16 07:37:55;;;;;;;4.22;2.67;;;;;;;7.24;100.00;101403.06;5066547;28;20024;-62
2023/03/16 07:40:21;;;;;;;3.97;2.63;;;;;;;7.23;100.00;101407.47;5066503;28;20020;-62
2023/03/16 07:42:46;;;;;;;7.40;2.55;;;;;;;7.35;100.00;101405.56;5012145;28;20485;-62
2023/03/16 07:45:13;;;;;;;9.90;3.05;;;;;;;7.33;100.00;101392.47;5027744;28;20094;-61
2023/03/16 07:47:38;;;;;;;8.23;3.00;;;;;;;7.26;100.00;101398.69;5022130;28;20033;-62
2023/03/16 07:50:04;;;;;;;5.97;2.70;;;;;;;7.31;100.00;101402.09;5025550;28;20103;-61
2023/03/16 07:52:29;;;;;;;7.32;2.65;;;;;;;7.16;100.00;101396.16;5024981;28;20037;-61
2023/03/16 07:54:55;;;;;;;7.60;2.75;;;;;;;7.32;100.00;101402.09;5025929;28;20029;-61
2023/03/16 07:57:20;;;;;;;5.57;2.50;;;;;;;7.26;100.00;101402.19;5024810;28;20141;-62
2023/03/16 07:59:46;;;;;;;6.15;2.80;;;;;;;7.39;100.00;101392.41;5025308;28;20394;-61
2023/03/16 08:02:12;;;;;;;4.97;2.47;;;;;;;7.37;100.00;101409.06;5037021;28;20044;-63
2023/03/16 08:04:41;;;;;;;7.53;2.80;;;;;;;7.43;100.00;101409.84;5044992;28;20017;-62
2023/03/16 08:07:07;;;;;;;4.90;2.30;;;;;;;7.42;100.00;101407.22;5045392;28;20246;-61
2023/03/16 08:09:34;;;;;;;8.43;2.95;;;;;;;7.62;100.00;101403.50;5044376;28;20028;-62
2023/03/16 08:12:01;;;;;;;9.50;2.88;;;;;;;7.49;100.00;101411.50;5045808;28;20021;-63
2023/03/16 08:14:26;;;;;;;8.38;2.70;;;;;;;7.65;100.00;101406.09;5043851;28;20496;-61
2023/03/16 08:16:53;;;;;;;4.50;2.78;;;;;;;7.63;100.00;101411.38;5045067;28;20055;-62
2023/03/16 08:19:19;;;;;;;6.85;2.60;;;;;;;7.71;100.00;101401.63;5044518;28;20029;-62
2023/03/16 08:21:44;;;;;;;6.03;2.38;;;;;;;7.65;100.00;101398.22;5042387;28;20496;-61
2023/03/16 08:24:09;;;;;;;5.88;2.58;;;;;;;7.86;100.00;101401.47;5043957;28;20388;-62
2023/03/16 08:26:35;;;;;;;6.60;3.95;;;;;;;7.93;100.00;101405.72;5045495;28;20033;-62
2023/03/16 08:29:02;;;;;;;6.55;2.90;;;;;;;7.88;100.00;101400.53;5042851;28;20032;-62
2023/03/16 08:31:27;;;;;;;11.27;2.85;;;;;;;7.69;100.00;101400.81;5043686;28;20029;-62
2023/03/16 08:33:53;;;;;;;6.30;2.60;;;;;;;7.75;100.00;101394.59;5042185;28;20381;-61
2023/03/16 08:36:19;;;;;;;4.43;2.28;;;;;;;7.91;100.00;101389.13;5044793;28;20029;-62
2023/03/16 08:38:46;;;;;;;9.02;2.50;;;;;;;7.95;100.00;101399.56;5041369;28;20013;-61
2023/03/16 08:41:11;;;;;;;6.88;2.97;;;;;;;7.84;100.00;101391.84;5045092;28;20025;-60
2023/03/16 08:43:37;;;;;;;2.70;2.05;;;;;;;7.71;100.00;101392.91;5045382;28;20370;-61
2023/03/16 08:46:04;;;;;;;6.65;2.50;;;;;;;7.88;100.00;101384.78;5045486;28;20035;-65
2023/03/16 08:48:30;;;;;;;5.22;2.33;;;;;;;8.08;100.00;101387.16;5039232;28;20021;-62
2023/03/16 08:50:55;;;;;;;5.00;2.15;;;;;;;8.29;100.00;101389.47;5044787;28;20036;-61
2023/03/16 08:53:21;;;;;;;8.32;2.30;;;;;;;8.61;100.00;101384.63;5027093;28;20017;-60
2023/03/16 08:55:47;;;;;;;8.02;2.47;;;;;;;8.67;100.00;101382.75;5022996;28;20021;-60
2023/03/16 08:58:12;;;;;;;4.18;2.22;;;;;;;8.90;100.00;101375.34;5045506;28;20112;-61
2023/03/16 09:00:38;;;;;;;4.38;2.45;;;;;;;8.95;100.00;101373.50;5044724;28;20113;-61
2023/03/16 09:03:04;;;;;;;4.80;2.20;;;;;;;9.02;100.00;101375.13;5043669;28;20415;-61
2023/03/16 09:05:30;;;;;;;4.43;2.13;;;;;;;9.20;100.00;101373.03;5044874;28;20063;-61
2023/03/16 09:07:55;;;;;;;5.65;2.40;;;;;;;9.15;100.00;101374.91;5044873;28;20036;-62
2023/03/16 09:10:22;;;;;;;4.78;2.15;;;;;;;9.30;100.00;101377.22;5044862;28;20520;-60
2023/03/16 09:12:48;;;;;;;8.48;1.95;;;;;;;9.46;100.00;101371.66;5026620;28;20062;-61
2023/03/16 09:15:14;;;;;;;6.05;2.33;;;;;;;9.63;100.00;101365.19;5043181;28;20497;-62
2023/03/16 09:17:41;;;;;;;6.78;2.40;;;;;;;9.76;100.00;101371.03;5043576;28;20035;-60
2023/03/16 09:20:09;;;;;;;5.97;1.92;;;;;;;9.94;99.98;101360.06;5044541;28;20104;-61
2023/03/16 09:22:36;;;;;;;5.77;2.40;;;;;;;9.80;100.00;101360.41;5045574;28;20029;-61
2023/03/16 09:25:01;;;;;;;5.18;2.65;;;;;;;9.55;100.00;101368.84;5042146;28;20527;-62
2023/03/16 09:27:27;;;;;;;4.25;1.95;;;;;;;9.53;100.00;101356.59;5044804;28;20017;-62
2023/03/16 09:29:55;;;;;;;3.85;2.20;;;;;;;9.22;100.00;101369.47;5045835;28;20035;-62
2023/03/16 09:32:20;;;;;;;5.53;2.20;;;;;;;9.63;100.00;101357.28;5045712;28;20028;-62
2023/03/16 09:34:46;;;;;;;3.10;1.98;;;;;;;9.75;100.00;101364.03;5047600;28;20033;-61
2023/03/16 09:37:11;;;;;;;5.30;1.83;;;;;;;9.96;99.67;101365.31;5048392;28;20032;-61
2023/03/16 09:39:37;;;;;;;4.65;1.80;;;;;;;10.13;98.87;101356.16;5029540;28;20369;-61
2023/03/16 09:42:17;;;;;;;5.40;2.13;;;;;;;10.25;98.84;101355.88;5046092;28;20029;-61
2023/03/16 09:44:42;;;;;;;3.70;1.90;;;;;;;10.33;97.48;101353.91;5046887;28;20029;-61
2023/03/16 09:47:10;;;;;;;9.43;2.47;;;;;;;10.57;95.66;101348.09;5045661;28;20104;-61
2023/03/16 09:49:40;;;;;;;5.60;2.88;;;;;;;10.96;93.79;101362.91;5026287;28;20528;-61
2023/03/16 09:52:29;;;;;;;6.60;2.03;;;;;;;11.25;91.73;101334.84;5024756;28;20048;-60
2023/03/16 09:55:23;;;;;;;4.13;1.67;;;;;;;11.30;89.31;101340.88;5043923;28;20088;-62
2023/03/16 09:57:49;;;;;;;9.77;2.28;;;;;;;11.25;89.16;101335.72;5026036;28;20031;-62
2023/03/16 10:00:18;;;;;;;6.65;1.60;;;;;;;11.40;88.64;101345.84;5030762;28;20025;-62
2023/03/16 10:03:10;;;;;;;4.13;1.85;;;;;;;11.35;89.28;101335.47;5030007;28;20036;-61
2023/03/16 10:05:37;;;;;;;9.65;1.92;;;;;;;11.59;86.97;101343.56;5044266;28;20060;-61
2023/03/16 10:08:15;;;;;;;8.82;2.17;;;;;;;11.72;86.72;101342.28;5047541;28;20412;-60
2023/03/16 10:11:21;;;;;;;3.95;1.60;;;;;;;12.09;84.40;101345.56;5030215;28;20037;-60
2023/03/16 10:14:01;;;;;;;6.18;1.50;;;;;;;12.18;84.68;101339.09;5047664;28;20117;-63
2023/03/16 10:16:34;;;;;;;7.38;1.52;;;;;;;12.09;82.92;101340.28;5047224;28;20028;-60
2023/03/16 10:19:10;;;;;;;8.20;1.90;;;;;;;12.13;81.08;101333.97;5026955;28;20638;-60
2023/03/16 10:21:38;;;;;;;4.57;1.60;;;;;;;12.12;79.88;101334.88;5027686;28;20337;-60
2023/03/16 10:24:05;;;;;;;4.70;1.77;;;;;;;12.24;79.41;101335.38;5046473;28;20025;-60
2023/03/16 10:26:37;;;;;;;3.80;1.90;;;;;;;12.38;79.89;101333.16;5045406;28;20036;-60
2023/03/16 10:29:08;;;;;;;4.28;1.90;;;;;;;12.38;79.85;101335.78;5045889;28;20017;-59
2023/03/16 10:31:33;;;;;;;4.10;1.80;;;;;;;12.51;78.58;101332.75;5045973;28;20107;-60
2023/03/16 10:34:04;;;;;;;4.10;1.70;;;;;;;12.63;79.75;101324.41;5046798;28;20425;-61
2023/03/16 10:36:38;;;;;;;3.15;1.73;;;;;;;12.66;78.39;101320.78;5045981;28;20079;-63
2023/03/16 10:39:06;;;;;;;3.90;1.90;;;;;;;12.62;77.19;101314.72;5031066;28;20021;-62
2023/03/16 10:41:36;;;;;;;9.55;1.88;;;;;;;12.67;78.21;101321.66;5027906;28;20022;-61
2023/03/16 10:44:10;;;;;;;6.05;2.28;;;;;;;12.49;77.69;101313.41;5048090;28;20035;-62
2023/03/16 10:46:40;;;;;;;6.53;1.80;;;;;;;12.63;76.88;101305.00;5046116;28;20025;-63
2023/03/16 10:49:27;;;;;;;5.60;1.77;;;;;;;12.76;78.44;101295.72;5048551;28;20074;-61
2023/03/16 10:51:54;;;;;;;4.95;1.65;;;;;;;12.75;77.46;101295.78;5046823;28;20027;-61
2023/03/16 10:54:39;;;;;;;6.88;2.05;;;;;;;12.55;78.17;101280.66;5048024;28;20017;-61
2023/03/16 10:57:24;;;;;;;3.63;1.85;;;;;;;12.98;76.37;101288.81;5030476;28;20029;-61
2023/03/16 10:59:55;;;;;;;4.28;1.80;;;;;;;13.06;76.47;101281.44;5048446;28;20021;-60
2023/03/16 11:02:25;;;;;;;4.90;1.73;;;;;;;12.93;76.50;101282.81;5046780;28;20134;-62
2023/03/16 11:04:51;;;;;;;6.60;1.80;;;;;;;13.04;76.45;101261.25;5047916;28;20013;-62
2023/03/16 11:07:18;;;;;;;4.28;1.80;;;;;;;13.24;75.76;101264.00;5029308;28;20029;-62
2023/03/16 11:09:46;;;;;;;4.03;1.52;;;;;;;13.09;75.17;101273.38;5046813;28;20383;-60
2023/03/16 11:12:22;;;;;;;4.93;1.50;;;;;;;13.23;73.61;101275.53;5046704;28;20032;-60
2023/03/16 11:14:48;;;;;;;3.42;1.70;;;;;;;12.96;73.38;101266.81;5029345;28;20493;-61
2023/03/16 11:17:31;;;;;;;7.03;1.63;;;;;;;13.16;72.84;101274.03;5046742;28;20066;-59
2023/03/16 11:20:00;;;;;;;5.07;1.45;;;;;;;13.30;71.69;101276.13;5024096;28;20429;-60
2023/03/16 11:22:26;;;;;;;3.90;1.52;;;;;;;13.09;72.89;101261.94;5046905;28;20017;-61
2023/03/16 11:25:10;;;;;;;5.95;1.77;;;;;;;12.95;72.07;101265.97;5047044;28;20381;-57